Time;durP1;ratioP1;P1;durP2;ratioP2;P2;SDS_P1;SDS_P2;PMS_P1;PMS_P2;Temp;Humidity;BMP_temperature;BMP_pressure;BME280_temperature;BME280_humidity;BME280_pressure;Samples;Min_cycle;Max_cycle;Signal;HPM_P1;HPM_P2
2021/12/02 00:01:43;;;;;;;12.98;2.83;;;;;;;;;;5014903;28;92542;-61
2021/12/02 00:04:09;;;;;;;13.55;2.30;;;;;;;;;;5015124;28;94249;-61
2021/12/02 00:06:36;;;;;;;10.05;2.40;;;;;;;;;;5014822;28;92422;-61
2021/12/02 00:09:03;;;;;;;11.75;2.55;;;;;;;;;;5014816;28;92540;-61
2021/12/02 00:11:30;;;;;;;12.88;2.88;;;;;;;;;;5014998;28;93159;-61
2021/12/02 00:13:59;;;;;;;15.32;2.88;;;;;;;;;;5015165;28;91649;-61
2021/12/02 00:16:40;;;;;;;14.75;1.83;;;;;;;;;;5017851;28;92389;-61
2021/12/02 00:21:53;;;;;;;11.00;2.45;;;;;;;;;;5013435;28;118544;-61
2021/12/02 00:24:22;;;;;;;6.22;1.00;;;;;;;;;;5014503;28;95376;-61
2021/12/02 00:26:49;;;;;;;5.80;1.30;;;;;;;;;;5014708;28;94182;-61
2021/12/02 00:29:16;;;;;;;3.08;0.80;;;;;;;;;;5014401;28;92366;-62
2021/12/02 00:31:44;;;;;;;6.68;0.98;;;;;;;;;;5014092;28;93398;-62
2021/12/02 00:34:10;;;;;;;1.90;0.80;;;;;;;;;;5014511;28;92790;-61
2021/12/02 00:36:37;;;;;;;3.15;0.68;;;;;;;;;;5016914;28;93303;-62
2021/12/02 00:39:08;;;;;;;2.35;0.70;;;;;;;;;;5014694;28;93020;-62
2021/12/02 00:41:35;;;;;;;8.90;1.23;;;;;;;;;;5014449;28;92490;-62
2021/12/02 00:44:01;;;;;;;5.75;1.30;;;;;;;;;;5013328;28;93357;-61
2021/12/02 00:46:31;;;;;;;4.15;1.30;;;;;;;;;;5012342;28;95280;-61
2021/12/02 00:49:02;;;;;;;9.38;1.10;;;;;;;;;;5012791;28;92575;-61
2021/12/02 00:51:29;;;;;;;3.15;0.77;;;;;;;;;;5011480;28;94418;-61
2021/12/02 00:53:59;;;;;;;5.57;1.00;;;;;;;;;;5008843;28;93235;-62
2021/12/02 00:56:25;;;;;;;9.38;1.55;;;;;;;;;;5014288;28;92388;-61
2021/12/02 00:58:52;;;;;;;7.45;1.58;;;;;;;;;;5016975;28;92476;-61
2021/12/02 01:01:19;;;;;;;1.80;0.70;;;;;;;;;;5014247;28;92459;-61
2021/12/02 01:03:50;;;;;;;3.38;1.00;;;;;;;;;;5014453;28;93148;-61
2021/12/02 01:06:16;;;;;;;4.00;0.73;;;;;;;;;;5013715;28;92925;-61
2021/12/02 01:08:43;;;;;;;1.75;0.55;;;;;;;;;;5014133;28;92363;-61
2021/12/02 01:11:10;;;;;;;8.43;1.10;;;;;;;;;;5012061;28;94844;-61
2021/12/02 01:13:36;;;;;;;6.47;0.88;;;;;;;;;;5015505;28;92467;-61
2021/12/02 01:16:03;;;;;;;7.43;1.23;;;;;;;;;;5017526;28;92443;-61
2021/12/02 01:18:29;;;;;;;5.68;1.08;;;;;;;;;;5016949;28;92995;-61
2021/12/02 01:20:56;;;;;;;8.05;0.90;;;;;;;;;;5020824;28;92884;-61
2021/12/02 01:23:23;;;;;;;3.55;0.93;;;;;;;;;;5018065;28;93241;-62
2021/12/02 01:25:53;;;;;;;4.68;0.75;;;;;;;;;;5017090;28;94493;-61
2021/12/02 01:28:20;;;;;;;;;;;;;;;;;;5017718;28;91649;-61
2021/12/02 01:30:46;;;;;;;6.60;0.93;;;;;;;;;;5018378;28;122769;-61
2021/12/02 01:33:13;;;;;;;8.27;1.25;;;;;;;;;;5017244;28;93239;-61
2021/12/02 01:35:43;;;;;;;3.83;1.02;;;;;;;;;;5015255;28;95223;-61
2021/12/02 01:38:10;;;;;;;6.00;1.20;;;;;;;;;;5013159;28;95640;-61
2021/12/02 01:40:36;;;;;;;6.55;1.25;;;;;;;;;;4998769;28;92460;-61
2021/12/02 01:43:04;;;;;;;6.38;1.02;;;;;;;;;;5000425;28;92298;-61
2021/12/02 01:45:30;;;;;;;6.85;1.02;;;;;;;;;;4996575;28;93481;-61
2021/12/02 01:47:58;;;;;;;8.18;1.85;;;;;;;;;;4997274;28;92430;-61
2021/12/02 01:50:26;;;;;;;5.07;1.10;;;;;;;;;;5004410;28;93114;-61
2021/12/02 01:52:56;;;;;;;5.75;1.08;;;;;;;;;;5016074;28;92759;-61
2021/12/02 01:55:23;;;;;;;6.93;1.10;;;;;;;;;;5016760;28;92387;-61
2021/12/02 01:57:58;;;;;;;5.22;1.15;;;;;;;;;;5016987;28;93175;-61
2021/12/02 02:00:26;;;;;;;3.35;0.70;;;;;;;;;;5009770;28;94836;-62
2021/12/02 02:02:53;;;;;;;11.73;1.10;;;;;;;;;;5016141;28;94166;-62
2021/12/02 02:05:20;;;;;;;4.35;0.77;;;;;;;;;;5019536;28;92985;-61
2021/12/02 02:07:58;;;;;;;6.80;1.17;;;;;;;;;;5015849;28;92648;-61
2021/12/02 02:10:26;;;;;;;7.35;1.00;;;;;;;;;;5015422;28;92496;-61
2021/12/02 02:12:54;;;;;;;3.80;1.10;;;;;;;;;;5010302;28;93302;-61
2021/12/02 02:15:20;;;;;;;1.88;0.68;;;;;;;;;;4996525;28;92527;-61
2021/12/02 02:17:55;;;;;;;4.05;0.80;;;;;;;;;;5009295;28;93539;-61
2021/12/02 02:20:23;;;;;;;5.80;0.60;;;;;;;;;;5016222;28;93563;-61
2021/12/02 02:22:49;;;;;;;6.28;0.82;;;;;;;;;;5015867;28;92562;-61
2021/12/02 02:25:18;;;;;;;3.83;0.90;;;;;;;;;;5014237;28;95228;-61
2021/12/02 02:27:45;;;;;;;4.05;0.75;;;;;;;;;;5019202;28;93507;-61
2021/12/02 02:30:11;;;;;;;2.85;0.82;;;;;;;;;;5016193;28;94497;-61
2021/12/02 02:32:38;;;;;;;10.93;1.08;;;;;;;;;;5015335;28;92263;-61
2021/12/02 02:35:05;;;;;;;5.22;0.98;;;;;;;;;;5016004;28;92461;-61
2021/12/02 02:37:34;;;;;;;2.72;0.65;;;;;;;;;;5015145;28;94051;-61
2021/12/02 02:40:01;;;;;;;2.13;0.70;;;;;;;;;;5014429;28;93289;-61
2021/12/02 02:42:27;;;;;;;5.72;1.13;;;;;;;;;;5013868;28;92794;-61
2021/12/02 02:44:54;;;;;;;7.32;1.10;;;;;;;;;;5012710;28;92787;-61
2021/12/02 02:47:24;;;;;;;8.45;0.90;;;;;;;;;;5017499;28;93480;-61
2021/12/02 02:49:50;;;;;;;6.90;1.23;;;;;;;;;;5014151;28;94774;-61
2021/12/02 02:52:16;;;;;;;4.50;1.02;;;;;;;;;;5014977;28;92472;-61
2021/12/02 02:54:43;;;;;;;9.48;1.20;;;;;;;;;;5014893;28;92267;-61
2021/12/02 02:57:12;;;;;;;7.85;1.15;;;;;;;;;;5006501;28;92212;-61
2021/12/02 03:00:31;;;;;;;4.15;0.47;;;;;;;;;;5013666;28;92436;-61
2021/12/02 03:07:40;;;;;;;4.68;0.80;;;;;;;;;;5015620;28;91852;-61
2021/12/02 03:13:56;;;;;;;9.52;0.95;;;;;;;;;;4944260;28;93543;-61
2021/12/02 03:18:43;;;;;;;5.80;1.33;;;;;;;;;;4952681;28;94085;-61
2021/12/02 03:21:22;;;;;;;4.78;1.20;;;;;;;;;;4953462;28;92464;-62
2021/12/02 03:23:52;;;;;;;9.98;1.20;;;;;;;;;;4953623;28;92504;-62
2021/12/02 03:26:18;;;;;;;10.73;1.10;;;;;;;;;;4953862;28;94768;-62
2021/12/02 03:28:46;;;;;;;7.25;1.10;;;;;;;;;;4953141;28;93471;-61
2021/12/02 03:31:13;;;;;;;6.32;1.13;;;;;;;;;;4953102;28;92472;-61
2021/12/02 03:33:41;;;;;;;5.70;1.40;;;;;;;;;;4957172;28;94159;-61
2021/12/02 03:36:11;;;;;;;4.53;0.95;;;;;;;;;;4952421;28;92487;-62
2021/12/02 03:38:37;;;;;;;4.40;0.80;;;;;;;;;;4943706;28;92511;-61
2021/12/02 03:41:04;;;;;;;5.63;0.82;;;;;;;;;;4951536;28;94906;-61
2021/12/02 03:43:38;;;;;;;3.97;0.90;;;;;;;;;;4970229;28;92394;-61
2021/12/02 03:46:05;;;;;;;4.18;0.98;;;;;;;;;;5015069;28;92427;-61
2021/12/02 03:48:31;;;;;;;6.60;1.17;;;;;;;;;;5013790;28;93628;-61
2021/12/02 03:50:58;;;;;;;6.32;1.00;;;;;;;;;;5014845;28;92441;-61
2021/12/02 03:53:24;;;;;;;8.30;1.70;;;;;;;;;;5014969;28;94029;-61
2021/12/02 03:55:50;;;;;;;6.22;1.02;;;;;;;;;;5016857;28;92507;-61
2021/12/02 03:58:17;;;;;;;2.80;0.90;;;;;;;;;;5013694;28;92521;-61
2021/12/02 04:00:43;;;;;;;6.10;1.33;;;;;;;;;;5014518;28;94557;-61
2021/12/02 04:03:09;;;;;;;3.08;0.80;;;;;;;;;;5022072;28;92468;-61
2021/12/02 04:05:36;;;;;;;8.55;1.05;;;;;;;;;;5013232;28;94749;-62
2021/12/02 04:08:02;;;;;;;2.35;0.85;;;;;;;;;;5014965;28;95519;-62
2021/12/02 04:10:31;;;;;;;5.85;1.20;;;;;;;;;;5014325;28;92489;-62
2021/12/02 04:13:10;;;;;;;3.90;1.27;;;;;;;;;;5013865;28;93013;-62
2021/12/02 04:15:40;;;;;;;4.78;0.85;;;;;;;;;;5013429;28;93249;-62
2021/12/02 04:18:07;;;;;;;7.93;1.38;;;;;;;;;;5017851;28;92670;-62
2021/12/02 04:20:33;;;;;;;4.68;0.93;;;;;;;;;;5013514;28;92387;-61
2021/12/02 04:23:00;;;;;;;9.02;1.05;;;;;;;;;;5015136;28;91688;-61
2021/12/02 04:25:27;;;;;;;10.70;1.52;;;;;;;;;;5005974;28;92469;-61
2021/12/02 04:27:54;;;;;;;6.95;1.10;;;;;;;;;;4994697;28;93322;-61
2021/12/02 04:30:22;;;;;;;4.95;0.73;;;;;;;;;;5042362;27;94929;-61
2021/12/02 04:32:49;;;;;;;3.03;0.70;;;;;;;;;;5013093;28;95841;-61
2021/12/02 04:35:16;;;;;;;2.92;0.68;;;;;;;;;;5014414;28;94695;-61
2021/12/02 04:37:45;;;;;;;4.68;0.80;;;;;;;;;;5014120;28;92546;-61
2021/12/02 04:40:15;;;;;;;2.75;0.60;;;;;;;;;;5017218;28;92443;-61
2021/12/02 04:42:42;;;;;;;7.10;1.13;;;;;;;;;;5014136;28;92442;-61
2021/12/02 04:45:09;;;;;;;7.35;0.85;;;;;;;;;;5014864;28;94011;-62
2021/12/02 04:47:35;;;;;;;4.18;0.63;;;;;;;;;;5015421;28;92632;-62
2021/12/02 04:50:02;;;;;;;3.53;0.60;;;;;;;;;;5017105;28;93869;-61
2021/12/02 04:52:28;;;;;;;3.80;0.70;;;;;;;;;;5018017;28;93193;-61
2021/12/02 04:54:54;;;;;;;16.75;1.63;;;;;;;;;;5015360;28;95342;-61
2021/12/02 04:57:21;;;;;;;2.83;0.73;;;;;;;;;;5017919;28;92405;-61
2021/12/02 04:59:47;;;;;;;2.10;0.52;;;;;;;;;;5020018;28;93229;-61
2021/12/02 05:02:14;;;;;;;7.93;0.85;;;;;;;;;;5018117;28;92438;-61
2021/12/02 05:04:40;;;;;;;3.38;0.80;;;;;;;;;;5017852;28;92264;-61
2021/12/02 05:07:06;;;;;;;3.22;0.60;;;;;;;;;;5017085;28;93284;-61
2021/12/02 05:09:33;;;;;;;1.73;0.60;;;;;;;;;;5017339;28;92357;-61
2021/12/02 05:11:59;;;;;;;3.25;0.77;;;;;;;;;;5017222;28;94241;-61
2021/12/02 05:14:25;;;;;;;4.13;0.65;;;;;;;;;;5015822;28;92463;-61
2021/12/02 05:16:52;;;;;;;3.30;0.60;;;;;;;;;;5016650;28;92351;-61
2021/12/02 05:19:18;;;;;;;5.57;0.68;;;;;;;;;;5014961;28;94994;-61
2021/12/02 05:21:44;;;;;;;3.13;0.90;;;;;;;;;;5019759;28;93559;-61
2021/12/02 05:24:11;;;;;;;3.20;0.70;;;;;;;;;;5015933;28;92510;-61
2021/12/02 05:26:37;;;;;;;6.20;1.02;;;;;;;;;;5017003;28;93188;-62
2021/12/02 05:29:03;;;;;;;4.80;1.13;;;;;;;;;;5015841;28;92419;-61
2021/12/02 05:31:30;;;;;;;3.38;0.70;;;;;;;;;;4999375;28;93325;-61
2021/12/02 05:33:56;;;;;;;4.22;0.50;;;;;;;;;;5013007;28;93775;-62
2021/12/02 05:36:22;;;;;;;2.47;0.70;;;;;;;;;;5017846;28;91876;-62
2021/12/02 05:38:49;;;;;;;7.43;2.50;;;;;;;;;;5017055;28;92520;-61
2021/12/02 05:41:15;;;;;;;2.35;0.73;;;;;;;;;;5008481;28;93663;-62
2021/12/02 05:43:42;;;;;;;6.05;0.90;;;;;;;;;;5016843;28;94862;-61
2021/12/02 05:46:08;;;;;;;1.02;0.52;;;;;;;;;;5015959;28;93304;-61
2021/12/02 05:48:34;;;;;;;5.40;0.77;;;;;;;;;;5016779;28;92541;-61
2021/12/02 05:51:01;;;;;;;1.73;0.50;;;;;;;;;;5016976;28;93181;-62
2021/12/02 05:53:27;;;;;;;3.30;0.60;;;;;;;;;;5016367;28;92486;-61
2021/12/02 05:55:53;;;;;;;5.40;1.02;;;;;;;;;;5015306;28;92530;-61
2021/12/02 05:58:19;;;;;;;6.28;1.30;;;;;;;;;;5016237;28;92339;-61
2021/12/02 06:00:46;;;;;;;1.98;0.80;;;;;;;;;;5017191;28;92730;-61
2021/12/02 06:03:12;;;;;;;2.75;0.50;;;;;;;;;;5016490;28;92571;-61
2021/12/02 06:05:39;;;;;;;2.30;0.80;;;;;;;;;;5019218;28;92278;-61
2021/12/02 06:08:05;;;;;;;5.57;0.90;;;;;;;;;;5015404;28;94811;-62
2021/12/02 06:10:32;;;;;;;1.92;0.88;;;;;;;;;;5016758;28;95683;-61
2021/12/02 06:12:58;;;;;;;1.95;0.80;;;;;;;;;;5016503;28;93594;-61
2021/12/02 06:15:24;;;;;;;2.22;0.90;;;;;;;;;;5016384;28;92445;-61
2021/12/02 06:17:51;;;;;;;3.80;1.10;;;;;;;;;;5016725;28;92325;-61
2021/12/02 06:20:17;;;;;;;2.25;0.85;;;;;;;;;;4997214;28;92347;-61
2021/12/02 06:22:45;;;;;;;3.50;1.05;;;;;;;;;;5000958;28;92427;-61
2021/12/02 06:27:45;;;;;;;9.57;1.00;;;;;;;;;;5018952;28;93258;-61
2021/12/02 06:30:11;;;;;;;;;;;;;;;;;;5016095;28;92465;-61
2021/12/02 06:32:37;;;;;;;4.45;1.23;;;;;;;;;;5015075;28;126303;-61
2021/12/02 06:35:04;;;;;;;7.22;1.10;;;;;;;;;;5016267;28;93085;-61
2021/12/02 06:37:30;;;;;;;2.88;0.95;;;;;;;;;;5015592;28;94269;-61
2021/12/02 06:39:57;;;;;;;4.22;0.98;;;;;;;;;;5015662;28;93683;-61
2021/12/02 06:42:23;;;;;;;2.67;0.93;;;;;;;;;;5015132;28;92489;-61
2021/12/02 06:44:49;;;;;;;1.15;0.70;;;;;;;;;;5016237;28;94647;-62
2021/12/02 06:47:16;;;;;;;4.20;1.30;;;;;;;;;;5004329;28;93634;-62
2021/12/02 06:49:42;;;;;;;9.55;1.70;;;;;;;;;;5013880;28;91871;-61
2021/12/02 06:52:13;;;;;;;6.65;1.50;;;;;;;;;;5016317;28;94539;-61
2021/12/02 06:54:39;;;;;;;4.03;1.83;;;;;;;;;;5016302;28;92344;-61
2021/12/02 06:57:06;;;;;;;7.97;1.90;;;;;;;;;;5014262;28;94801;-61
2021/12/02 06:59:37;;;;;;;5.30;1.70;;;;;;;;;;5014085;28;92503;-61
2021/12/02 07:02:03;;;;;;;4.10;1.25;;;;;;;;;;5015703;28;92433;-61
2021/12/02 07:04:29;;;;;;;4.40;1.30;;;;;;;;;;5016073;28;94260;-62
2021/12/02 07:06:56;;;;;;;4.20;1.20;;;;;;;;;;5015912;28;94509;-61
2021/12/02 07:09:22;;;;;;;9.75;1.42;;;;;;;;;;5018347;28;92472;-61
2021/12/02 07:11:48;;;;;;;4.72;1.10;;;;;;;;;;5014511;28;93471;-62
2021/12/02 07:14:17;;;;;;;4.40;1.13;;;;;;;;;;5015258;28;91662;-61
2021/12/02 07:16:43;;;;;;;2.95;1.20;;;;;;;;;;5015920;28;92437;-61
2021/12/02 07:19:13;;;;;;;13.38;1.67;;;;;;;;;;5015587;28;92464;-61
2021/12/02 07:21:40;;;;;;;5.47;1.60;;;;;;;;;;5011920;28;96384;-61
2021/12/02 07:24:08;;;;;;;6.78;1.25;;;;;;;;;;5006279;28;96646;-63
2021/12/02 07:26:35;;;;;;;5.82;1.05;;;;;;;;;;5013864;28;93027;-61
2021/12/02 07:29:02;;;;;;;9.27;1.15;;;;;;;;;;5014719;28;92475;-61
2021/12/02 07:31:31;;;;;;;5.18;1.27;;;;;;;;;;5014418;28;94522;-60
2021/12/02 07:33:58;;;;;;;6.95;1.00;;;;;;;;;;5014843;28;92363;-60
2021/12/02 07:36:24;;;;;;;6.55;1.33;;;;;;;;;;5013916;28;92297;-61
2021/12/02 07:38:51;;;;;;;6.47;0.93;;;;;;;;;;5013148;28;91665;-60
2021/12/02 07:41:17;;;;;;;9.55;1.48;;;;;;;;;;5009766;28;93967;-60
2021/12/02 07:43:43;;;;;;;9.27;1.33;;;;;;;;;;5001550;28;92929;-61
2021/12/02 07:46:10;;;;;;;3.90;1.02;;;;;;;;;;5012235;28;95052;-61
2021/12/02 07:48:36;;;;;;;4.93;1.35;;;;;;;;;;5014804;28;92560;-61
2021/12/02 07:51:06;;;;;;;8.27;1.10;;;;;;;;;;5013502;28;92395;-60
2021/12/02 07:53:33;;;;;;;1.38;0.80;;;;;;;;;;5017212;28;93451;-60
2021/12/02 07:56:01;;;;;;;6.20;1.05;;;;;;;;;;5015434;28;94971;-60
2021/12/02 07:58:27;;;;;;;2.95;0.77;;;;;;;;;;5013543;28;93112;-60
2021/12/02 08:00:57;;;;;;;5.60;0.90;;;;;;;;;;5015303;28;92439;-60
2021/12/02 08:03:26;;;;;;;4.82;1.00;;;;;;;;;;5014370;28;91831;-60
2021/12/02 08:05:53;;;;;;;5.22;1.02;;;;;;;;;;5014665;28;94067;-61
2021/12/02 08:08:19;;;;;;;3.05;0.82;;;;;;;;;;5014675;28;92596;-61
2021/12/02 08:10:50;;;;;;;4.40;0.80;;;;;;;;;;5013051;28;94827;-61
2021/12/02 08:13:17;;;;;;;4.10;2.30;;;;;;;;;;5014727;28;92360;-60
2021/12/02 08:15:44;;;;;;;4.03;0.88;;;;;;;;;;5016312;28;92429;-61
2021/12/02 08:18:10;;;;;;;0.55;0.47;;;;;;;;;;5014169;28;93623;-61
2021/12/02 08:20:36;;;;;;;1.23;0.60;;;;;;;;;;5009421;28;92185;-60
2021/12/02 08:23:03;;;;;;;1.15;0.60;;;;;;;;;;5020385;28;95038;-62
2021/12/02 08:25:30;;;;;;;1.65;0.50;;;;;;;;;;5033080;27;93182;-61
2021/12/02 08:27:59;;;;;;;4.75;0.80;;;;;;;;;;5033243;27;91717;-61
2021/12/02 08:30:27;;;;;;;2.28;1.15;;;;;;;;;;5034153;27;92396;-61
2021/12/02 08:32:54;;;;;;;3.70;1.30;;;;;;;;;;5005486;28;92497;-61
2021/12/02 08:35:21;;;;;;;1.17;0.80;;;;;;;;;;5011978;28;94877;-61
2021/12/02 08:37:50;;;;;;;4.30;1.13;;;;;;;;;;5017134;28;96553;-60
2021/12/02 08:40:18;;;;;;;0.98;0.80;;;;;;;;;;5013468;28;92410;-60
2021/12/02 08:42:45;;;;;;;2.70;0.80;;;;;;;;;;5014225;28;92381;-61
2021/12/02 08:45:13;;;;;;;2.85;0.80;;;;;;;;;;5011508;28;92384;-61
2021/12/02 08:47:45;;;;;;;2.70;1.08;;;;;;;;;;5012910;28;92450;-61
2021/12/02 08:50:13;;;;;;;2.10;0.73;;;;;;;;;;5013968;28;94242;-60
2021/12/02 08:52:39;;;;;;;4.47;0.85;;;;;;;;;;5013938;28;92466;-61
2021/12/02 08:55:06;;;;;;;1.55;0.82;;;;;;;;;;5013756;28;92432;-61
2021/12/02 08:57:43;;;;;;;3.25;1.08;;;;;;;;;;5016775;28;93113;-60
2021/12/02 09:00:12;;;;;;;1.67;0.60;;;;;;;;;;4997154;28;95036;-60
2021/12/02 09:02:38;;;;;;;2.40;0.90;;;;;;;;;;5011163;28;95780;-61
2021/12/02 09:05:05;;;;;;;5.63;0.85;;;;;;;;;;5013587;28;93079;-60
2021/12/02 09:07:31;;;;;;;7.68;0.75;;;;;;;;;;5012651;28;92396;-60
2021/12/02 09:09:58;;;;;;;1.73;0.77;;;;;;;;;;5013889;28;92348;-62
2021/12/02 09:12:24;;;;;;;5.82;1.05;;;;;;;;;;5013165;28;94154;-60
2021/12/02 09:14:51;;;;;;;6.07;1.42;;;;;;;;;;5012884;28;92450;-61
2021/12/02 09:17:18;;;;;;;3.42;0.98;;;;;;;;;;5013488;28;93135;-61
2021/12/02 09:19:45;;;;;;;6.35;0.85;;;;;;;;;;5015300;28;92393;-61
2021/12/02 09:22:11;;;;;;;4.90;1.10;;;;;;;;;;5013564;28;92960;-60
2021/12/02 09:24:39;;;;;;;3.90;0.77;;;;;;;;;;5011052;28;95831;-60
2021/12/02 09:27:06;;;;;;;2.53;0.98;;;;;;;;;;5013576;28;92427;-60
2021/12/02 09:29:32;;;;;;;4.47;1.10;;;;;;;;;;5013100;28;92841;-61
2021/12/02 09:31:59;;;;;;;5.28;1.20;;;;;;;;;;5013311;28;93521;-60
2021/12/02 09:34:28;;;;;;;2.17;0.85;;;;;;;;;;5015305;28;92443;-61
2021/12/02 09:36:55;;;;;;;2.90;0.88;;;;;;;;;;5016396;28;92545;-61
2021/12/02 09:39:29;;;;;;;4.78;0.93;;;;;;;;;;5015503;28;93523;-62
2021/12/02 09:41:55;;;;;;;3.92;0.75;;;;;;;;;;5019959;28;91662;-62
2021/12/02 09:44:21;;;;;;;4.00;1.55;;;;;;;;;;5016350;28;92434;-62
2021/12/02 09:46:48;;;;;;;3.65;0.93;;;;;;;;;;5016364;28;92363;-62
2021/12/02 09:49:16;;;;;;;3.05;0.90;;;;;;;;;;5015176;28;94832;-62
2021/12/02 09:51:56;;;;;;;6.25;1.20;;;;;;;;;;5015126;28;93753;-61
2021/12/02 09:54:28;;;;;;;2.70;0.90;;;;;;;;;;5016944;28;92464;-62
2021/12/02 09:56:58;;;;;;;2.35;1.02;;;;;;;;;;5016616;28;93147;-62
2021/12/02 10:00:16;;;;;;;3.30;1.03;;;;;;;;;;5014992;28;93381;-62
2021/12/02 10:02:14;;;;;;;5.53;0.82;;;;;;;;;;5012354;28;92400;-62
2021/12/02 10:05:05;;;;;;;1.42;0.70;;;;;;;;;;5019263;28;93393;-62
2021/12/02 10:07:35;;;;;;;2.28;0.80;;;;;;;;;;5011747;28;91789;-62
2021/12/02 10:12:36;;;;;;;3.33;0.82;;;;;;;;;;5014281;28;94786;-61
2021/12/02 10:15:08;;;;;;;5.00;0.87;;;;;;;;;;5013756;28;94925;-62
2021/12/02 10:17:39;;;;;;;3.38;1.05;;;;;;;;;;5005975;28;94335;-62
2021/12/02 10:23:04;;;;;;;3.60;0.70;;;;;;;;;;5013394;28;92402;-62
2021/12/02 10:25:31;;;;;;;2.60;0.90;;;;;;;;;;5014396;28;92469;-63
2021/12/02 10:28:04;;;;;;;1.67;0.82;;;;;;;;;;5018572;28;92283;-63
2021/12/02 10:30:31;;;;;;;3.70;1.10;;;;;;;;;;5014703;28;93075;-62
2021/12/02 10:32:57;;;;;;;1.63;0.75;;;;;;;;;;5016001;28;92523;-62
2021/12/02 10:35:55;;;;;;;2.55;0.73;;;;;;;;;;5016144;28;92378;-62
2021/12/02 10:38:51;;;;;;;4.05;0.75;;;;;;;;;;4992340;28;96095;-62
2021/12/02 10:41:24;;;;;;;3.83;1.00;;;;;;;;;;5006076;28;97530;-62
2021/12/02 10:44:00;;;;;;;1.58;0.70;;;;;;;;;;5015934;28;92478;-62
2021/12/02 10:46:26;;;;;;;1.95;0.80;;;;;;;;;;5015738;28;92554;-62
2021/12/02 10:48:53;;;;;;;2.10;0.80;;;;;;;;;;5015753;28;93441;-62
2021/12/02 10:51:37;;;;;;;2.42;0.70;;;;;;;;;;5018720;28;92434;-62
2021/12/02 10:54:12;;;;;;;2.75;0.43;;;;;;;;;;5015593;28;92383;-62
2021/12/02 10:56:39;;;;;;;3.47;0.60;;;;;;;;;;5016066;28;92486;-62
2021/12/02 10:59:24;;;;;;;3.08;0.65;;;;;;;;;;5015737;28;92200;-62
2021/12/02 11:01:51;;;;;;;0.57;0.50;;;;;;;;;;5015294;28;92490;-62
2021/12/02 11:04:18;;;;;;;2.35;0.50;;;;;;;;;;5015629;28;92528;-62
2021/12/02 11:06:45;;;;;;;1.08;0.55;;;;;;;;;;5012567;28;94831;-62
2021/12/02 11:09:29;;;;;;;0.50;0.40;;;;;;;;;;5013946;28;93044;-62
2021/12/02 11:12:11;;;;;;;2.13;0.57;;;;;;;;;;5017892;28;92381;-61
2021/12/02 11:14:42;;;;;;;2.60;0.57;;;;;;;;;;5015151;28;92485;-61
2021/12/02 11:17:13;;;;;;;0.50;0.50;;;;;;;;;;5015775;28;92411;-61
2021/12/02 11:19:46;;;;;;;1.40;0.20;;;;;;;;;;5015595;28;93464;-61
2021/12/02 11:22:19;;;;;;;1.77;0.50;;;;;;;;;;5014249;28;93513;-61
2021/12/02 11:24:47;;;;;;;3.67;0.28;;;;;;;;;;5015964;28;91643;-61
2021/12/02 11:27:14;;;;;;;3.50;0.60;;;;;;;;;;5015390;28;93548;-61
2021/12/02 11:29:46;;;;;;;3.40;0.85;;;;;;;;;;5015164;28;94472;-61
2021/12/02 11:32:41;;;;;;;0.52;0.43;;;;;;;;;;5013403;28;95222;-61
2021/12/02 11:35:13;;;;;;;1.38;0.60;;;;;;;;;;5008064;28;95314;-61
2021/12/02 11:37:45;;;;;;;3.45;0.63;;;;;;;;;;5014634;28;92407;-61
2021/12/02 11:40:23;;;;;;;2.95;0.52;;;;;;;;;;5013561;28;92362;-62
2021/12/02 11:42:50;;;;;;;1.77;0.77;;;;;;;;;;5009674;28;94729;-62
2021/12/02 11:45:19;;;;;;;1.42;0.50;;;;;;;;;;5014272;28;92519;-62
2021/12/02 11:47:47;;;;;;;1.23;0.65;;;;;;;;;;5013709;28;92408;-62
2021/12/02 11:50:14;;;;;;;2.25;0.50;;;;;;;;;;5015323;28;91692;-62
2021/12/02 11:52:41;;;;;;;1.80;0.50;;;;;;;;;;5014425;28;92377;-61
2021/12/02 11:55:10;;;;;;;1.58;0.60;;;;;;;;;;5014301;28;92931;-62
2021/12/02 11:57:36;;;;;;;1.05;0.40;;;;;;;;;;5014663;28;95888;-62
2021/12/02 12:00:05;;;;;;;0.70;0.52;;;;;;;;;;5013850;28;94219;-62
2021/12/02 12:02:31;;;;;;;0.75;0.40;;;;;;;;;;5014269;28;92398;-62
2021/12/02 12:05:01;;;;;;;2.00;0.85;;;;;;;;;;5014736;28;92502;-62
2021/12/02 12:07:46;;;;;;;3.35;0.70;;;;;;;;;;5014490;28;92686;-62
2021/12/02 12:10:17;;;;;;;1.10;0.60;;;;;;;;;;5013664;28;93306;-62
2021/12/02 12:12:44;;;;;;;0.60;0.60;;;;;;;;;;5014408;28;92421;-62
2021/12/02 12:15:28;;;;;;;4.40;0.98;;;;;;;;;;5000624;28;92193;-62
2021/12/02 12:17:55;;;;;;;1.88;0.63;;;;;;;;;;5014409;28;92385;-62
2021/12/02 12:20:41;;;;;;;0.82;0.70;;;;;;;;;;5017367;28;92407;-63
2021/12/02 12:23:26;;;;;;;1.60;0.80;;;;;;;;;;5011059;28;94852;-62
2021/12/02 12:26:06;;;;;;;2.17;0.73;;;;;;;;;;5013976;28;92614;-63
2021/12/02 12:28:33;;;;;;;;;;;;;;;;;;5012907;28;92319;-63
2021/12/02 12:31:06;;;;;;;0.57;0.50;;;;;;;;;;5014893;28;123963;-63
2021/12/02 12:33:39;;;;;;;1.75;0.65;;;;;;;;;;5014469;28;92856;-61
2021/12/02 12:36:29;;;;;;;3.15;0.85;;;;;;;;;;5014392;28;92277;-63
2021/12/02 12:39:15;;;;;;;1.48;1.13;;;;;;;;;;5012942;28;93718;-63
2021/12/02 12:41:42;;;;;;;1.75;0.80;;;;;;;;;;5014789;28;91693;-63
2021/12/02 12:44:08;;;;;;;2.63;1.10;;;;;;;;;;5016623;28;92346;-63
2021/12/02 12:46:35;;;;;;;6.32;1.85;;;;;;;;;;5014010;28;92453;-63
2021/12/02 12:49:15;;;;;;;3.83;1.17;;;;;;;;;;5011875;28;95318;-63
2021/12/02 12:51:49;;;;;;;3.35;0.98;;;;;;;;;;5012987;28;93567;-63
2021/12/02 12:54:19;;;;;;;3.20;1.10;;;;;;;;;;5013668;28;92808;-63
2021/12/02 12:56:47;;;;;;;3.08;1.00;;;;;;;;;;5013902;28;92591;-63
2021/12/02 12:59:14;;;;;;;3.10;1.00;;;;;;;;;;5006569;28;92403;-63
2021/12/02 13:01:56;;;;;;;4.82;1.58;;;;;;;;;;4992664;28;92567;-63
2021/12/02 13:04:25;;;;;;;3.55;1.15;;;;;;;;;;5013911;28;93068;-63
2021/12/02 13:07:03;;;;;;;6.95;1.00;;;;;;;;;;5017388;28;91892;-63
2021/12/02 13:09:39;;;;;;;4.13;1.73;;;;;;;;;;5014854;28;92512;-63
2021/12/02 13:12:05;;;;;;;1.52;0.95;;;;;;;;;;5017139;28;94415;-63
2021/12/02 13:14:33;;;;;;;1.25;0.90;;;;;;;;;;5009398;28;95043;-63
2021/12/02 13:16:59;;;;;;;5.18;1.40;;;;;;;;;;5017726;28;94389;-62
2021/12/02 13:19:26;;;;;;;6.05;2.15;;;;;;;;;;5016212;28;93406;-62
2021/12/02 13:21:56;;;;;;;3.60;1.25;;;;;;;;;;5016345;28;92889;-63
2021/12/02 13:24:33;;;;;;;19.65;1.83;;;;;;;;;;5017256;28;93664;-62
2021/12/02 13:27:05;;;;;;;6.40;1.30;;;;;;;;;;5019398;28;92454;-62
2021/12/02 13:29:34;;;;;;;4.20;1.35;;;;;;;;;;5017226;28;93226;-63
2021/12/02 13:32:03;;;;;;;5.28;1.00;;;;;;;;;;5017260;28;92910;-62
2021/12/02 13:34:30;;;;;;;2.08;1.20;;;;;;;;;;5016915;28;92474;-62
2021/12/02 13:36:57;;;;;;;3.17;1.30;;;;;;;;;;5017056;28;93122;-63
2021/12/02 13:39:25;;;;;;;5.00;1.77;;;;;;;;;;5014903;28;95763;-62
2021/12/02 13:41:56;;;;;;;4.93;1.73;;;;;;;;;;5016834;28;92330;-62
2021/12/02 13:44:25;;;;;;;8.43;1.60;;;;;;;;;;5017141;28;92824;-62
2021/12/02 13:46:52;;;;;;;7.43;1.73;;;;;;;;;;5016324;28;92347;-62
2021/12/02 13:49:20;;;;;;;8.50;1.75;;;;;;;;;;5019904;28;92439;-62
2021/12/02 13:54:33;;;;;;;7.18;1.75;;;;;;;;;;5015861;28;93355;-62
2021/12/02 13:57:01;;;;;;;3.85;1.58;;;;;;;;;;5017110;28;91831;-62
2021/12/02 13:59:37;;;;;;;3.50;1.25;;;;;;;;;;5007366;28;93603;-62
2021/12/02 14:02:04;;;;;;;2.70;1.35;;;;;;;;;;4997137;28;92921;-62
2021/12/02 14:04:41;;;;;;;6.20;1.50;;;;;;;;;;5013716;28;94945;-62
2021/12/02 14:07:09;;;;;;;2.60;1.30;;;;;;;;;;5016365;28;92659;-64
2021/12/02 14:09:45;;;;;;;9.43;1.67;;;;;;;;;;5015957;28;94023;-62
2021/12/02 14:12:16;;;;;;;3.83;1.23;;;;;;;;;;5019351;28;92370;-62
2021/12/02 14:14:54;;;;;;;4.57;1.60;;;;;;;;;;5014690;28;92445;-62
2021/12/02 14:17:20;;;;;;;14.02;1.98;;;;;;;;;;5015844;28;92343;-62
2021/12/02 14:20:04;;;;;;;9.77;1.98;;;;;;;;;;5008377;28;94756;-62
2021/12/02 14:22:32;;;;;;;7.13;1.67;;;;;;;;;;4996549;28;91754;-62
2021/12/02 14:24:58;;;;;;;6.50;1.63;;;;;;;;;;5010013;28;92389;-62
2021/12/02 14:27:24;;;;;;;5.05;1.58;;;;;;;;;;5013078;28;92486;-62
2021/12/02 14:30:08;;;;;;;3.20;1.30;;;;;;;;;;5000259;28;94806;-62
2021/12/02 14:32:34;;;;;;;6.65;1.75;;;;;;;;;;5000862;28;95957;-62
2021/12/02 14:35:04;;;;;;;7.30;1.60;;;;;;;;;;5017703;28;93780;-62
2021/12/02 14:37:32;;;;;;;7.85;1.40;;;;;;;;;;5015994;28;93178;-62
2021/12/02 14:39:58;;;;;;;5.43;1.33;;;;;;;;;;5015770;28;94565;-62
2021/12/02 14:42:25;;;;;;;10.07;2.00;;;;;;;;;;5015616;28;92405;-62
2021/12/02 14:44:53;;;;;;;5.05;1.38;;;;;;;;;;5015582;28;92494;-63
2021/12/02 14:47:20;;;;;;;4.95;1.50;;;;;;;;;;5016501;28;92791;-62
2021/12/02 14:49:48;;;;;;;9.25;1.60;;;;;;;;;;5015275;28;92522;-62
2021/12/02 14:52:17;;;;;;;5.22;1.80;;;;;;;;;;5015886;28;92507;-62
2021/12/02 14:54:51;;;;;;;8.85;1.70;;;;;;;;;;5013493;28;96199;-62
2021/12/02 14:57:18;;;;;;;3.42;1.27;;;;;;;;;;5019028;28;92362;-62
2021/12/02 14:59:45;;;;;;;5.88;1.67;;;;;;;;;;5004365;28;94489;-62
2021/12/02 15:02:28;;;;;;;4.72;2.13;;;;;;;;;;5012576;28;92676;-62
2021/12/02 15:04:58;;;;;;;6.32;2.10;;;;;;;;;;5015250;28;92403;-62
2021/12/02 15:07:26;;;;;;;6.90;1.88;;;;;;;;;;5015340;28;92365;-62
2021/12/02 15:10:13;;;;;;;2.95;1.33;;;;;;;;;;5013870;28;92520;-62
2021/12/02 15:12:42;;;;;;;4.75;1.50;;;;;;;;;;5015851;28;94879;-62
2021/12/02 15:15:10;;;;;;;4.95;1.30;;;;;;;;;;5015707;28;93992;-62
2021/12/02 15:17:44;;;;;;;3.83;1.00;;;;;;;;;;5014842;28;92400;-62
2021/12/02 15:20:19;;;;;;;7.55;1.35;;;;;;;;;;5016812;28;94743;-62